Time;durP1;ratioP1;P1;durP2;ratioP2;P2;SDS_P1;SDS_P2;PMS_P1;PMS_P2;Temp;Humidity;BMP_temperature;BMP_pressure;BME280_temperature;BME280_humidity;BME280_pressure;Samples;Min_cycle;Max_cycle;Signal;HPM_P1;HPM_P2
2022/05/06 00:01:37;;;;;;;22.07;13.33;;;;;;;12.33;96.98;97228.84;4954778;29;20638;-69
2022/05/06 00:04:04;;;;;;;21.90;14.77;;;;;;;12.33;96.11;97220.97;4954271;28;20591;-69
2022/05/06 00:06:31;;;;;;;26.47;15.43;;;;;;;12.35;96.26;97219.72;4955096;29;20195;-69
2022/05/06 00:08:57;;;;;;;24.13;14.37;;;;;;;12.21;97.16;97218.31;4955021;29;20281;-69
2022/05/06 00:11:23;;;;;;;24.57;14.70;;;;;;;12.29;96.99;97219.81;4954603;29;20197;-67
2022/05/06 00:13:52;;;;;;;18.53;13.87;;;;;;;12.31;96.37;97221.22;4954491;29;20650;-69
2022/05/06 00:16:21;;;;;;;17.33;13.57;;;;;;;12.22;97.56;97217.28;4954678;28;20320;-69
2022/05/06 00:18:47;;;;;;;21.70;13.53;;;;;;;12.31;96.66;97221.22;4954840;29;20204;-67
2022/05/06 00:21:13;;;;;;;19.30;13.93;;;;;;;12.37;96.57;97222.13;4955111;29;20272;-69
2022/05/06 00:23:38;;;;;;;17.47;14.03;;;;;;;12.39;96.49;97217.44;4954752;29;20593;-69
2022/05/06 00:26:03;;;;;;;21.77;13.37;;;;;;;12.39;95.41;97218.25;4954672;29;20248;-67
2022/05/06 00:28:30;;;;;;;24.97;14.70;;;;;;;12.36;95.91;97208.19;4954871;29;20230;-67
2022/05/06 00:30:56;;;;;;;21.97;14.60;;;;;;;12.25;96.79;97214.22;4954619;29;20187;-67
2022/05/06 00:33:24;;;;;;;24.43;14.50;;;;;;;12.25;96.26;97219.50;4954270;29;20177;-69
2022/05/06 00:35:53;;;;;;;26.20;13.97;;;;;;;12.24;96.39;97220.50;4954381;29;20197;-69
2022/05/06 00:38:18;;;;;;;23.13;14.57;;;;;;;12.37;95.66;97219.50;4954498;28;20577;-69
2022/05/06 00:40:44;;;;;;;21.63;14.13;;;;;;;12.18;97.08;97216.16;4953466;29;20178;-69
2022/05/06 00:43:09;;;;;;;21.40;14.87;;;;;;;12.26;96.40;97209.78;4954636;29;20627;-72
2022/05/06 00:45:44;;;;;;;23.70;14.10;;;;;;;12.17;96.77;97211.91;4954251;29;20189;-69
2022/05/06 00:48:09;;;;;;;18.70;14.20;;;;;;;12.18;96.59;97210.91;4954742;29;20255;-67
2022/05/06 00:50:35;;;;;;;21.63;14.23;;;;;;;12.20;96.51;97211.47;4954503;29;20320;-67
2022/05/06 00:53:04;;;;;;;19.17;14.17;;;;;;;12.09;96.84;97215.66;4954239;29;20177;-68
2022/05/06 00:55:31;;;;;;;21.20;13.97;;;;;;;12.18;96.68;97202.22;4954373;29;20626;-67
2022/05/06 00:57:56;;;;;;;22.23;15.10;;;;;;;11.98;97.52;97211.19;4954308;29;20201;-68
2022/05/06 01:00:22;;;;;;;18.67;13.67;;;;;;;11.98;98.12;97213.03;4954374;29;20585;-67
2022/05/06 01:02:48;;;;;;;20.57;14.23;;;;;;;11.97;98.16;97209.59;4954172;29;20229;-68
2022/05/06 01:05:14;;;;;;;25.57;14.90;;;;;;;11.93;98.28;97210.25;4954225;29;20185;-68
2022/05/06 01:07:41;;;;;;;20.60;14.70;;;;;;;12.05;97.76;97213.72;4954131;29;20189;-68
2022/05/06 01:10:07;;;;;;;22.77;15.03;;;;;;;12.16;96.92;97210.31;4954099;29;20204;-68
2022/05/06 01:12:33;;;;;;;27.63;15.70;;;;;;;11.97;97.99;97212.22;4936955;29;20192;-68
2022/05/06 01:14:59;;;;;;;23.30;15.10;;;;;;;12.03;97.85;97213.16;4933233;29;20234;-67
2022/05/06 01:17:24;;;;;;;26.50;16.63;;;;;;;12.04;97.80;97210.28;4935017;29;20293;-68
2022/05/06 01:19:50;;;;;;;23.33;14.13;;;;;;;12.17;97.53;97211.13;4934928;29;20190;-68
2022/05/06 01:22:17;;;;;;;24.07;15.77;;;;;;;12.19;97.21;97209.88;4934911;29;20528;-68
2022/05/06 01:24:42;;;;;;;24.03;15.80;;;;;;;12.12;96.96;97219.69;4934793;29;20178;-68
2022/05/06 01:27:32;;;;;;;24.20;15.97;;;;;;;11.95;98.45;97216.09;4935885;29;20182;-68
2022/05/06 01:29:59;;;;;;;23.33;14.17;;;;;;;12.17;97.52;97221.63;4938912;29;20558;-68
2022/05/06 01:32:27;;;;;;;25.33;16.20;;;;;;;12.19;96.70;97219.59;4938179;29;20178;-68
2022/05/06 01:34:56;;;;;;;22.30;14.80;;;;;;;12.02;97.53;97220.22;4938258;29;20186;-68
2022/05/06 01:37:22;;;;;;;23.17;15.50;;;;;;;12.10;97.70;97221.72;4938225;29;20181;-68
2022/05/06 01:39:53;;;;;;;23.10;14.97;;;;;;;12.22;96.70;97229.63;4938062;29;20315;-68
2022/05/06 01:42:20;;;;;;;20.57;14.87;;;;;;;12.09;97.42;97222.78;4938636;29;20170;-68
2022/05/06 01:44:48;;;;;;;23.40;15.73;;;;;;;11.93;99.08;97228.63;4936901;29;20250;-68
2022/05/06 01:47:25;;;;;;;25.83;15.83;;;;;;;12.07;97.61;97225.63;4937253;29;20178;-68
2022/05/06 01:49:53;;;;;;;23.47;15.20;;;;;;;12.14;97.36;97224.72;4938512;29;20174;-68
2022/05/06 01:52:18;;;;;;;25.70;14.97;;;;;;;11.99;98.40;97225.91;4937735;29;20186;-68
2022/05/06 01:54:45;;;;;;;22.87;15.00;;;;;;;12.19;97.09;97217.75;4938013;29;20270;-68
2022/05/06 01:57:10;;;;;;;21.10;15.87;;;;;;;12.21;97.11;97223.56;4938066;29;20178;-68
2022/05/06 01:59:35;;;;;;;22.63;14.87;;;;;;;12.11;97.66;97233.03;4938065;29;20205;-68
2022/05/06 02:02:01;;;;;;;21.80;15.20;;;;;;;12.06;97.83;97231.88;4938056;29;20209;-68
2022/05/06 02:07:10;;;;;;;25.30;15.87;;;;;;;12.34;96.62;97225.19;4938034;29;20538;-67
2022/05/06 02:09:35;;;;;;;22.13;14.67;;;;;;;12.35;96.55;97218.91;4936582;29;20199;-67
2022/05/06 02:12:01;;;;;;;29.17;16.23;;;;;;;12.19;96.94;97228.28;4937890;29;20185;-67
2022/05/06 02:14:27;;;;;;;25.27;15.03;;;;;;;12.12;97.41;97227.56;4939732;29;20190;-67
2022/05/06 02:16:53;;;;;;;22.97;15.13;;;;;;;12.24;97.18;97222.34;4957021;29;20178;-70
2022/05/06 02:19:18;;;;;;;24.00;16.67;;;;;;;12.03;98.10;97221.03;4955331;29;20520;-67
2022/05/06 02:21:44;;;;;;;20.97;14.77;;;;;;;12.19;97.52;97216.97;4956767;29;20185;-66
2022/05/06 02:24:09;;;;;;;22.27;16.07;;;;;;;12.22;97.13;97213.88;4956438;29;20312;-68
2022/05/06 02:26:35;;;;;;;24.50;16.00;;;;;;;12.18;97.49;97216.16;4956917;29;20264;-68
2022/05/06 02:29:00;;;;;;;20.47;14.37;;;;;;;12.28;96.87;97212.97;4955304;29;20185;-67
2022/05/06 02:34:15;;;;;;;22.13;15.33;;;;;;;12.16;96.83;97212.94;4956181;29;20495;-68
2022/05/06 02:36:41;;;;;;;23.33;14.40;;;;;;;12.20;97.00;97219.38;4940330;29;20585;-68
2022/05/06 02:39:06;;;;;;;22.07;14.63;;;;;;;11.99;98.08;97220.66;4955649;28;20205;-68
2022/05/06 02:41:31;;;;;;;24.87;15.77;;;;;;;12.07;98.06;97225.63;4955539;29;20177;-68
2022/05/06 02:43:57;;;;;;;20.57;14.20;;;;;;;12.13;98.05;97223.13;4956422;29;20638;-68
2022/05/06 02:46:23;;;;;;;22.33;14.63;;;;;;;12.04;98.31;97225.25;4956329;29;20181;-68
2022/05/06 02:48:48;;;;;;;20.90;14.83;;;;;;;11.96;98.72;97220.31;4956312;29;20320;-68
2022/05/06 02:51:13;;;;;;;21.90;15.10;;;;;;;11.97;99.15;97216.69;4956563;29;20203;-66
2022/05/06 02:53:39;;;;;;;21.87;14.93;;;;;;;11.85;98.97;97221.09;4956953;29;20208;-68
2022/05/06 02:56:04;;;;;;;20.67;15.00;;;;;;;11.84;99.75;97228.16;4955889;29;20173;-68
2022/05/06 02:58:30;;;;;;;23.60;14.97;;;;;;;11.89;99.68;97222.25;4954820;29;20205;-67
2022/05/06 03:00:55;;;;;;;22.03;15.20;;;;;;;11.79;100.00;97219.34;4938519;29;20533;-69
2022/05/06 03:03:20;;;;;;;22.60;14.73;;;;;;;11.80;100.00;97224.41;4955538;29;20293;-67
2022/05/06 03:05:46;;;;;;;21.00;14.63;;;;;;;11.89;99.90;97222.25;4956051;29;20527;-68
2022/05/06 03:08:11;;;;;;;21.47;14.50;;;;;;;11.90;99.00;97218.59;4955982;29;20208;-68
2022/05/06 03:10:36;;;;;;;24.50;14.73;;;;;;;11.97;99.40;97225.38;4955520;29;20324;-68
2022/05/06 03:13:02;;;;;;;18.37;13.67;;;;;;;11.91;99.17;97220.19;4955795;29;20594;-68
2022/05/06 03:15:28;;;;;;;19.27;14.00;;;;;;;11.83;100.00;97215.25;4955115;29;20242;-68
2022/05/06 03:17:53;;;;;;;17.40;13.23;;;;;;;11.79;100.00;97206.22;4955786;29;20197;-68
2022/05/06 03:20:20;;;;;;;21.90;13.73;;;;;;;11.97;99.54;97219.31;4955714;29;20212;-68
2022/05/06 03:22:46;;;;;;;20.27;13.73;;;;;;;11.86;99.77;97218.25;4955784;29;20266;-68
2022/05/06 03:25:13;;;;;;;22.97;13.87;;;;;;;11.97;99.53;97217.47;4955453;29;20248;-68
2022/05/06 03:30:23;;;;;;;19.47;13.67;;;;;;;12.04;98.48;97217.38;4955437;29;20614;-68
2022/05/06 03:32:49;;;;;;;21.80;13.87;;;;;;;12.01;98.60;97218.63;4955120;29;20181;-68
2022/05/06 03:35:16;;;;;;;19.10;13.33;;;;;;;11.96;99.45;97225.56;4953837;29;20181;-68
2022/05/06 03:37:42;;;;;;;17.80;13.43;;;;;;;11.85;100.00;97215.84;4955300;28;20181;-67
2022/05/06 03:40:08;;;;;;;17.70;13.03;;;;;;;11.78;100.00;97218.56;4954602;29;20193;-68
2022/05/06 03:42:33;;;;;;;18.80;13.77;;;;;;;11.75;100.00;97220.84;4954922;29;20182;-68
2022/05/06 03:45:03;;;;;;;17.03;13.57;;;;;;;11.81;100.00;97220.75;4954861;29;20190;-67
2022/05/06 03:47:28;;;;;;;21.07;13.50;;;;;;;11.66;100.00;97223.72;4955120;29;20263;-68
2022/05/06 03:52:38;;;;;;;19.07;13.53;;;;;;;11.63;100.00;97223.38;4955051;29;20192;-68
2022/05/06 03:55:04;;;;;;;18.83;14.27;;;;;;;11.67;100.00;97227.97;4954659;29;20181;-68
2022/05/06 03:57:29;;;;;;;19.73;13.80;;;;;;;11.67;100.00;97224.53;4954597;29;20192;-68
2022/05/06 03:59:55;;;;;;;22.67;13.70;;;;;;;11.61;100.00;97220.97;4955065;29;20191;-68
2022/05/06 04:02:20;;;;;;;21.60;13.97;;;;;;;11.57;100.00;97224.25;4954780;29;20365;-68
2022/05/06 04:04:46;;;;;;;20.43;12.50;;;;;;;11.47;100.00;97230.03;4954651;29;20181;-67
2022/05/06 04:07:11;;;;;;;17.57;12.53;;;;;;;11.62;100.00;97227.03;4954911;29;20593;-67
2022/05/06 04:09:37;;;;;;;14.87;12.90;;;;;;;11.77;100.00;97231.91;4953527;29;20561;-68
2022/05/06 04:12:03;;;;;;;15.77;12.83;;;;;;;11.77;100.00;97235.31;4955175;29;20253;-68
2022/05/06 04:14:29;;;;;;;18.90;13.47;;;;;;;11.65;100.00;97237.06;4954749;29;20460;-68
2022/05/06 04:16:54;;;;;;;19.93;12.90;;;;;;;11.49;100.00;97232.44;4954976;29;20176;-67
2022/05/06 04:19:19;;;;;;;18.23;12.67;;;;;;;11.66;100.00;97234.22;4954681;29;20216;-68
2022/05/06 04:24:30;;;;;;;15.57;12.87;;;;;;;11.67;100.00;97241.09;4954417;29;20177;-69
2022/05/06 04:26:55;;;;;;;16.80;13.00;;;;;;;11.66;100.00;97247.34;4953486;29;20181;-68
2022/05/06 04:29:21;;;;;;;17.27;12.97;;;;;;;11.79;100.00;97250.88;4954581;29;20189;-68
2022/05/06 04:31:46;;;;;;;13.00;11.23;;;;;;;11.90;100.00;97252.75;4953355;29;20177;-68
2022/05/06 04:34:11;;;;;;;16.70;13.00;;;;;;;11.80;100.00;97250.66;4954462;29;20592;-68
2022/05/06 04:36:39;;;;;;;17.50;12.33;;;;;;;11.79;100.00;97251.66;4953085;29;20181;-69
2022/05/06 04:39:05;;;;;;;18.50;12.47;;;;;;;11.89;100.00;97248.50;4954236;29;20249;-69
2022/05/06 04:41:30;;;;;;;17.90;13.43;;;;;;;12.01;100.00;97249.34;4953855;29;20332;-68
2022/05/06 04:43:56;;;;;;;17.47;12.80;;;;;;;11.81;100.00;97254.88;4954115;29;20577;-68
2022/05/06 04:46:21;;;;;;;18.03;13.67;;;;;;;11.97;100.00;97256.09;4954071;29;20181;-68
2022/05/06 04:48:46;;;;;;;16.33;13.23;;;;;;;11.84;100.00;97258.88;4954637;29;20602;-68
2022/05/06 04:51:12;;;;;;;16.97;12.40;;;;;;;11.74;100.00;97256.78;4954196;29;20184;-68
2022/05/06 04:53:37;;;;;;;17.37;13.63;;;;;;;11.65;100.00;97258.88;4954300;29;20268;-67
2022/05/06 04:56:03;;;;;;;17.07;13.87;;;;;;;11.65;100.00;97261.50;4954218;29;20249;-69
2022/05/06 04:58:29;;;;;;;19.77;14.60;;;;;;;11.87;100.00;97256.59;4954270;29;20233;-68
2022/05/06 05:00:54;;;;;;;17.47;13.77;;;;;;;11.97;100.00;97262.13;4954347;29;20598;-68
2022/05/06 05:03:21;;;;;;;20.57;14.87;;;;;;;11.88;100.00;97263.47;4957585;28;20514;-68
2022/05/06 05:05:47;;;;;;;16.33;14.33;;;;;;;11.91;100.00;97265.66;4958328;29;20181;-68
2022/05/06 05:08:12;;;;;;;18.60;13.43;;;;;;;11.81;100.00;97261.97;4958213;29;20185;-68
2022/05/06 05:10:38;;;;;;;18.43;14.60;;;;;;;11.94;100.00;97270.44;4958306;29;20185;-69
2022/05/06 05:13:03;;;;;;;26.23;14.83;;;;;;;11.89;100.00;97272.16;4958227;29;20224;-69
2022/05/06 05:15:29;;;;;;;19.07;14.30;;;;;;;12.01;100.00;97271.16;4958238;28;20291;-69
2022/05/06 05:17:55;;;;;;;16.23;13.27;;;;;;;11.80;100.00;97271.66;4957060;29;20308;-69
2022/05/06 05:20:20;;;;;;;16.60;13.90;;;;;;;11.72;100.00;97279.00;4940513;29;20181;-69
2022/05/06 05:22:45;;;;;;;18.87;14.00;;;;;;;11.73;100.00;97275.34;4958071;29;20186;-69
2022/05/06 05:25:12;;;;;;;17.83;14.03;;;;;;;11.74;100.00;97271.75;4957413;29;20276;-69
2022/05/06 05:27:38;;;;;;;16.77;14.17;;;;;;;11.69;100.00;97275.00;4957996;29;20178;-69
2022/05/06 05:30:06;;;;;;;20.07;14.37;;;;;;;11.75;100.00;97275.97;4956304;29;20189;-69
2022/05/06 05:32:35;;;;;;;18.10;14.00;;;;;;;11.92;100.00;97277.78;4957843;29;20190;-69
2022/05/06 05:35:00;;;;;;;21.47;13.30;;;;;;;11.77;100.00;97268.66;4957515;29;20182;-69
2022/05/06 05:37:26;;;;;;;17.63;13.60;;;;;;;11.71;100.00;97274.75;4957675;29;20203;-69
2022/05/06 05:39:51;;;;;;;18.23;13.17;;;;;;;11.61;100.00;97277.91;4957403;29;20309;-69
2022/05/06 05:42:24;;;;;;;14.83;12.63;;;;;;;11.50;100.00;97281.28;4957569;29;20181;-69
2022/05/06 05:50:18;;;;;;;16.07;12.97;;;;;;;11.54;100.00;97280.63;4957112;29;20189;-70
2022/05/06 05:52:44;;;;;;;17.13;12.50;;;;;;;11.33;100.00;97280.28;4955773;29;20606;-69
2022/05/06 05:55:10;;;;;;;15.17;13.40;;;;;;;11.18;100.00;97284.06;4956770;28;20181;-69
2022/05/06 05:57:36;;;;;;;16.20;13.27;;;;;;;11.43;100.00;97276.09;4957105;29;20178;-67
2022/05/06 06:00:03;;;;;;;19.93;13.77;;;;;;;11.24;100.00;97288.44;4957062;29;20537;-68
2022/05/06 06:02:29;;;;;;;15.67;12.60;;;;;;;11.59;100.00;97293.13;4957411;29;20221;-69
2022/05/06 06:04:55;;;;;;;19.80;12.83;;;;;;;11.49;100.00;97288.34;4957009;29;20188;-70
2022/05/06 06:07:21;;;;;;;16.17;13.77;;;;;;;11.37;100.00;97291.97;4957179;29;20256;-70
2022/05/06 06:09:46;;;;;;;16.13;12.47;;;;;;;11.42;100.00;97295.53;4959631;29;20221;-70
2022/05/06 06:12:12;;;;;;;19.27;13.03;;;;;;;11.30;100.00;97294.66;4956579;29;20261;-70
2022/05/06 06:14:37;;;;;;;15.17;12.30;;;;;;;11.32;100.00;97297.84;4955066;28;20597;-70
2022/05/06 06:17:02;;;;;;;16.47;11.97;;;;;;;11.60;100.00;97303.38;4938925;29;20178;-70
2022/05/06 06:19:28;;;;;;;17.80;12.80;;;;;;;11.49;100.00;97300.69;4956401;29;20216;-71
2022/05/06 06:21:53;;;;;;;15.00;12.20;;;;;;;11.37;100.00;97294.59;4956296;29;20653;-70
2022/05/06 06:24:19;;;;;;;19.53;13.47;;;;;;;11.37;100.00;97299.81;4956313;29;20177;-70
2022/05/06 06:26:45;;;;;;;17.07;13.20;;;;;;;11.30;100.00;97299.09;4956270;29;20260;-69
2022/05/06 06:29:10;;;;;;;15.33;12.33;;;;;;;11.48;100.00;97299.88;4956531;29;20207;-70
2022/05/06 06:31:37;;;;;;;17.57;12.67;;;;;;;11.41;100.00;97303.63;4956137;29;20503;-70
2022/05/06 06:34:03;;;;;;;15.23;12.00;;;;;;;11.31;100.00;97304.13;4955965;29;20556;-71
2022/05/06 06:36:28;;;;;;;14.77;12.20;;;;;;;11.31;100.00;97295.44;4966090;28;20208;-72
2022/05/06 06:38:54;;;;;;;13.23;11.77;;;;;;;11.46;100.00;97303.75;4974225;28;20212;-70
2022/05/06 06:41:23;;;;;;;14.57;12.33;;;;;;;11.81;100.00;97304.78;4962695;28;20332;-71
2022/05/06 06:43:49;;;;;;;13.53;11.40;;;;;;;11.62;100.00;97305.78;4972141;28;20224;-70
2022/05/06 06:46:15;;;;;;;16.27;12.37;;;;;;;11.65;100.00;97306.13;4959203;28;20276;-70
2022/05/06 06:48:41;;;;;;;15.63;12.00;;;;;;;11.64;100.00;97301.94;4970988;28;20181;-70
2022/05/06 06:51:06;;;;;;;13.77;11.10;;;;;;;11.82;100.00;97308.19;4973638;28;20609;-70
2022/05/06 06:53:32;;;;;;;16.83;11.30;;;;;;;11.97;100.00;97309.44;4956254;28;20244;-71
2022/05/06 06:55:57;;;;;;;12.83;10.83;;;;;;;11.80;100.00;97311.06;4961436;28;20201;-70
2022/05/06 06:58:23;;;;;;;16.63;10.97;;;;;;;11.75;100.00;97315.38;4967629;28;20204;-70
2022/05/06 07:00:48;;;;;;;19.07;10.03;;;;;;;11.57;100.00;97314.31;4959896;28;20189;-70
2022/05/06 07:03:14;;;;;;;15.43;10.60;;;;;;;11.36;100.00;97312.16;4962248;28;20188;-71
2022/05/06 07:11:52;;;;;;;15.40;10.00;;;;;;;11.48;100.00;97317.47;4972481;28;20196;-71
2022/05/06 07:13:55;;;;;;;11.37;9.40;;;;;;;11.44;100.00;97319.72;4961224;28;20558;-71
2022/05/06 07:16:20;;;;;;;12.80;10.23;;;;;;;11.51;98.90;97317.03;4966177;28;20295;-71
2022/05/06 07:18:46;;;;;;;11.70;9.83;;;;;;;11.57;98.78;97324.03;4956058;28;20625;-71
2022/05/06 07:21:12;;;;;;;11.00;8.97;;;;;;;11.33;100.00;97328.31;4969349;28;20178;-71
2022/05/06 07:23:37;;;;;;;11.97;9.73;;;;;;;11.44;99.58;97319.72;4970967;28;20208;-71
2022/05/06 07:26:02;;;;;;;14.47;9.60;;;;;;;11.36;99.47;97330.53;4965010;28;20199;-71
2022/05/06 07:28:28;;;;;;;11.70;8.73;;;;;;;11.49;98.57;97321.69;4954538;28;20248;-71
2022/05/06 07:30:53;;;;;;;10.83;8.53;;;;;;;11.33;97.70;97341.44;4954245;28;20271;-70
2022/05/06 07:33:18;;;;;;;10.03;8.83;;;;;;;11.22;98.58;97323.78;4957378;28;20319;-69
2022/05/06 07:35:44;;;;;;;11.40;9.13;;;;;;;11.27;97.82;97326.56;4968365;28;20176;-71
2022/05/06 07:38:09;;;;;;;10.40;9.20;;;;;;;11.29;97.73;97327.16;4967034;28;20221;-70
2022/05/06 07:40:34;;;;;;;14.63;9.77;;;;;;;11.26;98.06;97327.56;4954832;28;20193;-70
2022/05/06 07:43:00;;;;;;;12.57;9.23;;;;;;;11.56;96.68;97331.09;4957440;28;20702;-72
2022/05/06 07:45:25;;;;;;;10.83;9.37;;;;;;;11.41;97.85;97333.28;4957761;28;20188;-70
2022/05/06 07:47:51;;;;;;;12.07;9.63;;;;;;;11.59;96.79;97333.28;4956785;28;20271;-71
2022/05/06 07:50:16;;;;;;;12.23;8.97;;;;;;;11.68;95.44;97329.34;4965172;28;20185;-71
2022/05/06 07:52:41;;;;;;;10.37;8.73;;;;;;;11.46;95.70;97338.69;4956238;28;20185;-71
2022/05/06 07:55:10;;;;;;;10.23;8.53;;;;;;;11.83;94.85;97336.88;4954498;28;20178;-71
2022/05/06 07:57:35;;;;;;;9.27;8.33;;;;;;;11.85;94.79;97342.72;4954968;28;20273;-71
2022/05/06 08:00:02;;;;;;;10.37;9.10;;;;;;;11.79;93.98;97346.22;4954021;28;20263;-69
2022/05/06 08:05:11;;;;;;;11.70;8.87;;;;;;;11.89;93.12;97337.81;4959392;28;20311;-70
2022/05/06 08:07:37;;;;;;;10.73;8.50;;;;;;;12.09;91.86;97339.16;4953646;28;20272;-70
2022/05/06 08:10:06;;;;;;;11.67;8.37;;;;;;;12.23;90.72;97339.00;4952854;28;20185;-70
2022/05/06 08:12:32;;;;;;;10.87;8.40;;;;;;;11.86;91.11;97346.16;4963793;28;20634;-70
2022/05/06 08:14:58;;;;;;;9.50;8.50;;;;;;;11.86;93.10;97346.16;4955149;28;20367;-69
2022/05/06 08:17:23;;;;;;;11.93;8.13;;;;;;;12.13;91.67;97346.63;4971284;28;20520;-70
2022/05/06 08:19:49;;;;;;;9.73;7.57;;;;;;;12.17;90.96;97356.44;4971261;28;20200;-70
2022/05/06 08:22:14;;;;;;;11.10;8.00;;;;;;;12.20;90.33;97353.41;4972918;28;20192;-70
2022/05/06 08:24:39;;;;;;;14.27;8.60;;;;;;;12.47;88.21;97356.47;4972656;28;20196;-70
2022/05/06 08:27:05;;;;;;;10.23;7.67;;;;;;;12.37;89.06;97351.72;4969042;28;20284;-69
2022/05/06 08:29:30;;;;;;;11.90;7.97;;;;;;;12.20;89.06;97352.59;4953371;28;20843;-70
2022/05/06 08:31:56;;;;;;;9.13;7.73;;;;;;;12.21;89.19;97346.28;4956996;28;20202;-70
2022/05/06 08:34:21;;;;;;;9.73;7.60;;;;;;;12.25;89.32;97343.00;4966463;28;20196;-70
2022/05/06 08:36:47;;;;;;;8.53;7.30;;;;;;;12.44;88.18;97349.81;4970854;28;20638;-69
2022/05/06 08:39:13;;;;;;;11.13;7.67;;;;;;;12.46;87.48;97354.84;4958018;28;20271;-70
2022/05/06 08:41:40;;;;;;;11.83;7.77;;;;;;;12.54;86.12;97349.25;4953714;28;20662;-70
2022/05/06 08:52:26;;;;;;;13.37;7.50;;;;;;;12.42;87.70;97356.31;4968771;28;20195;-70
2022/05/06 08:54:52;;;;;;;10.43;7.60;;;;;;;12.53;87.17;97355.56;4970701;28;20188;-70
2022/05/06 08:57:18;;;;;;;9.43;7.83;;;;;;;12.68;86.54;97355.13;4973060;28;20517;-70
2022/05/06 08:59:50;;;;;;;9.07;7.30;;;;;;;12.82;85.26;97357.31;4956158;28;20255;-69
2022/05/06 09:02:15;;;;;;;9.60;7.57;;;;;;;12.69;85.18;97362.81;4940523;28;20201;-70
2022/05/06 09:04:41;;;;;;;10.43;6.87;;;;;;;12.86;85.14;97363.75;4970018;28;20223;-70
2022/05/06 09:07:19;;;;;;;10.23;7.13;;;;;;;13.05;83.52;97359.19;4971675;28;20203;-70
2022/05/06 09:10:05;;;;;;;12.23;6.80;;;;;;;12.84;83.14;97362.38;4955315;28;20213;-70
2022/05/06 09:12:42;;;;;;;9.73;7.20;;;;;;;12.75;83.66;97369.00;4953582;28;20185;-69
2022/05/06 09:17:56;;;;;;;9.27;6.93;;;;;;;12.95;82.58;97377.38;4961593;28;20189;-71
2022/05/06 09:20:23;;;;;;;7.97;6.23;;;;;;;12.93;82.70;97373.38;4952026;28;20690;-70
2022/05/06 09:22:52;;;;;;;9.50;6.50;;;;;;;13.29;80.88;97371.38;4958381;28;20263;-70
2022/05/06 09:25:42;;;;;;;9.13;6.20;;;;;;;13.30;79.56;97364.28;4972155;28;20217;-69
2022/05/06 09:28:21;;;;;;;9.40;6.10;;;;;;;13.33;78.96;97359.34;4956071;28;20181;-69
2022/05/06 09:31:07;;;;;;;8.10;5.97;;;;;;;13.33;79.23;97371.69;4951768;28;20173;-69
2022/05/06 09:33:35;;;;;;;7.67;6.20;;;;;;;13.59;78.56;97373.06;4955859;28;20223;-69
2022/05/06 09:36:24;;;;;;;6.93;6.27;;;;;;;13.49;78.73;97383.38;4972262;28;20642;-70
2022/05/06 09:39:07;;;;;;;16.60;7.20;;;;;;;13.97;77.26;97377.81;4972642;28;20606;-70
2022/05/06 09:41:38;;;;;;;8.93;7.10;;;;;;;13.63;77.38;97382.91;4956989;28;20193;-70
2022/05/06 09:44:06;;;;;;;8.20;6.10;;;;;;;13.64;79.06;97375.81;4957399;28;20200;-70
2022/05/06 09:46:32;;;;;;;7.57;6.63;;;;;;;13.81;76.31;97370.63;4967190;28;20263;-70
2022/05/06 09:48:59;;;;;;;8.87;5.83;;;;;;;13.79;76.12;97367.41;4974885;28;20280;-70
2022/05/06 09:51:33;;;;;;;8.37;5.97;;;;;;;13.96;75.75;97371.75;4962270;28;20705;-70
2022/05/06 09:54:00;;;;;;;9.30;6.20;;;;;;;13.88;77.00;97358.91;4957948;28;20608;-70
2022/05/06 09:56:27;;;;;;;6.57;5.43;;;;;;;13.51;76.10;97363.69;4952124;28;20193;-70
2022/05/06 09:58:54;;;;;;;7.07;5.60;;;;;;;13.55;75.48;97369.28;4975529;28;20691;-69
2022/05/06 10:01:20;;;;;;;8.30;6.10;;;;;;;13.82;74.12;97373.00;4965127;28;20236;-69
2022/05/06 10:03:46;;;;;;;6.83;6.03;;;;;;;13.89;74.60;97365.78;4959866;28;20181;-69
2022/05/06 10:06:12;;;;;;;8.20;6.37;;;;;;;13.79;75.09;97365.59;4970609;28;20223;-70
2022/05/06 10:08:43;;;;;;;7.57;5.50;;;;;;;14.31;73.87;97366.34;4968665;28;20275;-71
2022/05/06 10:11:14;;;;;;;9.87;6.87;;;;;;;14.33;73.27;97366.09;4975557;28;20226;-72
2022/05/06 10:13:45;;;;;;;7.33;5.80;;;;;;;14.47;73.21;97370.09;4972047;28;20260;-71
2022/05/06 10:16:11;;;;;;;6.83;6.13;;;;;;;14.51;73.33;97366.75;4975300;28;20240;-71
2022/05/06 10:18:56;;;;;;;10.00;6.20;;;;;;;14.51;72.86;97369.38;4974880;28;20220;-71
2022/05/06 10:21:48;;;;;;;7.90;6.50;;;;;;;14.79;71.39;97370.38;4974956;28;20327;-70
2022/05/06 10:24:17;;;;;;;9.00;6.27;;;;;;;15.24;70.83;97379.03;4964796;28;20191;-70
2022/05/06 10:26:52;;;;;;;7.53;6.47;;;;;;;15.25;68.97;97375.38;4969199;28;20269;-70
2022/05/06 10:34:55;;;;;;;6.67;6.13;;;;;;;15.96;67.48;97359.69;4971693;28;20225;-71
2022/05/06 10:37:21;;;;;;;7.53;6.50;;;;;;;15.88;67.32;97370.72;4956284;28;20646;-71
2022/05/06 10:39:46;;;;;;;7.50;6.53;;;;;;;15.89;67.70;97362.50;4956209;28;20273;-71
2022/05/06 10:42:16;;;;;;;8.73;6.53;;;;;;;16.15;66.28;97358.34;4955546;28;20185;-71
2022/05/06 10:44:48;;;;;;;7.70;6.10;;;;;;;16.19;66.89;97362.88;4949532;28;20181;-71
2022/05/06 10:47:16;;;;;;;9.40;6.57;;;;;;;16.31;66.07;97360.09;4960746;28;20185;-71
2022/05/06 10:49:43;;;;;;;8.67;6.37;;;;;;;16.34;66.55;97350.84;4962516;28;20221;-71
2022/05/06 10:52:20;;;;;;;9.47;6.47;;;;;;;16.26;65.41;97343.38;4973029;28;20653;-71
2022/05/06 10:55:00;;;;;;;9.27;6.63;;;;;;;15.97;66.21;97350.72;4968467;28;20184;-71
2022/05/06 10:57:28;;;;;;;9.00;7.00;;;;;;;16.19;65.27;97346.22;4956176;28;20174;-71
2022/05/06 10:59:57;;;;;;;9.33;6.13;;;;;;;16.45;65.56;97345.41;4956112;28;20205;-71
2022/05/06 11:02:27;;;;;;;10.73;6.63;;;;;;;16.56;65.81;97341.00;4965775;28;20207;-71
2022/05/06 11:05:01;;;;;;;11.27;7.13;;;;;;;17.10;63.97;97347.06;4963676;28;20185;-71
2022/05/06 11:07:27;;;;;;;7.80;6.03;;;;;;;17.28;63.90;97343.19;4966799;28;20417;-71
2022/05/06 11:09:53;;;;;;;6.73;5.90;;;;;;;17.36;62.93;97340.88;4956965;28;20677;-72
2022/05/06 11:12:40;;;;;;;6.43;5.30;;;;;;;17.74;62.03;97346.94;4958997;28;20228;-71
2022/05/06 11:15:08;;;;;;;7.97;5.97;;;;;;;17.95;60.69;97350.47;4962939;28;20324;-70
2022/05/06 11:17:34;;;;;;;8.10;5.63;;;;;;;17.47;61.31;97355.00;4973954;28;20177;-70
2022/05/06 11:20:01;;;;;;;7.18;5.75;;;;;;;17.77;59.86;97341.94;4973457;28;20220;-71
2022/05/06 11:22:27;;;;;;;8.75;5.43;;;;;;;17.99;59.63;97338.31;4955238;28;20596;-72
2022/05/06 11:24:56;;;;;;;8.55;5.32;;;;;;;17.79;59.93;97341.66;4961004;28;20235;-70
2022/05/06 11:27:22;;;;;;;7.25;5.38;;;;;;;17.46;58.56;97338.28;4974287;28;20191;-70
2022/05/06 11:29:55;;;;;;;6.95;5.30;;;;;;;17.51;57.97;97342.81;4960436;28;20213;-72
2022/05/06 11:32:23;;;;;;;9.27;5.57;;;;;;;17.18;58.04;97349.22;4959637;28;20176;-71
2022/05/06 11:35:01;;;;;;;7.78;5.15;;;;;;;17.11;58.67;97338.06;4974240;28;20189;-70
2022/05/06 11:37:33;;;;;;;6.25;5.07;;;;;;;17.33;58.54;97336.06;4956737;28;20196;-70
2022/05/06 11:42:44;;;;;;;8.17;5.50;;;;;;;17.55;56.80;97337.81;4958274;28;20542;-70
2022/05/06 11:48:11;;;;;;;6.87;5.03;;;;;;;17.34;56.90;97347.47;4974036;28;20196;-71
2022/05/06 11:50:41;;;;;;;5.83;5.23;;;;;;;17.54;55.55;97339.66;4960306;28;20204;-70
2022/05/06 11:53:13;;;;;;;10.25;5.15;;;;;;;17.56;56.57;97342.03;4952708;28;20181;-72
2022/05/06 11:55:41;;;;;;;5.03;4.63;;;;;;;17.52;56.28;97333.81;4957033;28;20613;-70
2022/05/06 11:58:10;;;;;;;5.37;4.80;;;;;;;17.49;56.00;97336.19;4968368;28;20205;-70
2022/05/06 12:00:36;;;;;;;8.20;5.03;;;;;;;17.28;56.76;97332.59;4954907;29;20705;-71
2022/05/06 12:03:06;;;;;;;7.07;5.03;;;;;;;17.60;56.20;97329.91;4954571;28;20217;-71
2022/05/06 12:05:36;;;;;;;6.75;5.70;;;;;;;17.61;55.83;97331.53;4937491;29;20229;-70
2022/05/06 12:08:03;;;;;;;11.35;5.15;;;;;;;17.53;54.77;97334.63;4954798;29;20181;-70
2022/05/06 12:10:36;;;;;;;8.68;4.93;;;;;;;17.67;54.38;97338.41;4954480;29;20880;-70